createdAt,value
2022-09-10T00:01:57.023Z,4.35
2022-09-10T00:04:24.383Z,7.85
2022-09-10T00:06:53.043Z,2.92
2022-09-10T00:09:20.363Z,5.88
2022-09-10T00:11:47.745Z,5.03
2022-09-10T00:14:15.850Z,10.88
2022-09-10T00:16:43.196Z,3.35
2022-09-10T00:19:10.499Z,3.55
2022-09-10T00:21:37.800Z,10.77
2022-09-10T00:24:06.750Z,4.32
2022-09-10T00:26:35.231Z,5.72
2022-09-10T00:29:02.561Z,6.03
2022-09-10T00:31:30.449Z,3.70
2022-09-10T00:33:58.313Z,4.72
2022-09-10T00:36:26.647Z,7.03
2022-09-10T00:38:54.795Z,5.43
2022-09-10T00:41:24.724Z,3.53
2022-09-10T00:43:52.771Z,4.85
2022-09-10T00:46:22.620Z,8.25
2022-09-10T00:48:49.946Z,2.38
2022-09-10T00:51:17.251Z,7.57
2022-09-10T00:53:44.800Z,3.47
2022-09-10T00:56:12.116Z,3.90
2022-09-10T00:58:40.755Z,4.53
2022-09-10T01:01:08.168Z,4.43
2022-09-10T01:03:35.566Z,6.57
2022-09-10T01:06:03.112Z,4.07
2022-09-10T01:08:31.255Z,3.47
2022-09-10T01:11:01.557Z,5.72
2022-09-10T01:13:33.495Z,4.78
2022-09-10T01:16:03.990Z,4.68
2022-09-10T01:18:32.964Z,8.02
2022-09-10T01:21:09.215Z,3.78
2022-09-10T01:24:00.508Z,4.95
2022-09-10T01:26:37.414Z,5.07
2022-09-10T01:29:07.082Z,9.00
2022-09-10T01:31:34.931Z,7.10
2022-09-10T01:34:03.016Z,6.60
2022-09-10T01:36:31.230Z,5.75
2022-09-10T01:38:58.514Z,4.72
2022-09-10T01:41:25.938Z,6.53
2022-09-10T01:43:53.269Z,6.55
2022-09-10T01:46:29.806Z,4.45
2022-09-10T01:49:00.589Z,6.45
2022-09-10T01:51:29.769Z,7.13
2022-09-10T01:54:14.452Z,7.72
2022-09-10T01:56:42.034Z,8.18
2022-09-10T01:59:14.064Z,5.80
2022-09-10T02:01:44.531Z,5.85
2022-09-10T02:04:14.679Z,6.95
2022-09-10T02:06:42.756Z,6.35
2022-09-10T02:09:10.057Z,5.22
2022-09-10T02:11:44.231Z,4.43
2022-09-10T02:14:14.047Z,8.38
2022-09-10T02:16:43.858Z,6.22
2022-09-10T02:19:11.326Z,6.03
2022-09-10T02:21:38.659Z,6.80
2022-09-10T02:24:06.596Z,6.80
2022-09-10T02:26:34.331Z,10.25
2022-09-10T02:29:01.826Z,5.82
2022-09-10T02:31:29.345Z,5.97
2022-09-10T02:33:58.014Z,7.70
2022-09-10T02:36:26.050Z,4.88
2022-09-10T02:38:53.577Z,7.00
2022-09-10T02:41:21.698Z,6.43
2022-09-10T02:43:49.568Z,7.43
2022-09-10T02:46:16.896Z,7.47
2022-09-10T02:48:44.217Z,4.80
2022-09-10T02:51:13.012Z,5.53
2022-09-10T02:53:40.338Z,7.22
2022-09-10T02:56:08.674Z,5.78
2022-09-10T02:58:35.975Z,6.70
2022-09-10T03:01:06.825Z,6.22
2022-09-10T03:03:34.229Z,5.72
2022-09-10T03:06:01.529Z,7.63
2022-09-10T03:08:30.246Z,5.78
2022-09-10T03:10:59.416Z,4.38
2022-09-10T03:13:27.520Z,6.43
2022-09-10T03:15:54.934Z,4.63
2022-09-10T03:18:22.893Z,4.60
2022-09-10T03:20:50.202Z,6.43
2022-09-10T03:23:17.641Z,4.85
2022-09-10T03:25:49.632Z,5.30
2022-09-10T03:28:17.332Z,3.63
2022-09-10T03:30:44.639Z,4.32
2022-09-10T03:33:13.402Z,6.95
2022-09-10T03:35:40.709Z,6.65
2022-09-10T03:38:08.014Z,6.97
2022-09-10T03:40:35.550Z,7.25
2022-09-10T03:43:05.373Z,3.20
2022-09-10T03:45:33.125Z,5.82
2022-09-10T03:48:00.536Z,3.85
2022-09-10T03:50:27.847Z,7.28
2022-09-10T03:52:56.250Z,3.45
2022-09-10T03:55:23.612Z,10.55
2022-09-10T03:57:50.959Z,12.45
2022-09-10T04:00:19.734Z,5.95
2022-09-10T04:02:48.173Z,6.90
2022-09-10T04:05:15.877Z,4.53
2022-09-10T04:07:43.915Z,3.22
2022-09-10T04:10:11.222Z,6.65
2022-09-10T04:12:39.114Z,6.38
2022-09-10T04:15:06.987Z,4.32
2022-09-10T04:17:35.660Z,5.05
2022-09-10T04:20:03.260Z,4.20
2022-09-10T04:22:30.557Z,4.63
2022-09-10T04:24:57.893Z,5.80
2022-09-10T04:27:26.537Z,4.90
2022-09-10T04:29:53.837Z,5.47
2022-09-10T04:32:21.384Z,4.75
2022-09-10T04:34:50.020Z,3.60
2022-09-10T04:37:19.508Z,7.78
2022-09-10T04:39:47.148Z,4.75
2022-09-10T04:42:20.157Z,7.82
2022-09-10T04:44:47.471Z,5.25
2022-09-10T04:47:14.777Z,5.60
2022-09-10T04:49:42.239Z,2.90
2022-09-10T04:52:11.588Z,5.45
2022-09-10T04:54:38.917Z,4.45
2022-09-10T04:57:06.395Z,4.93
2022-09-10T04:59:34.866Z,4.85
2022-09-10T05:02:03.623Z,3.58
2022-09-10T05:04:30.998Z,7.13
2022-09-10T05:06:58.599Z,3.25
2022-09-10T05:09:31.057Z,4.50
2022-09-10T05:11:58.391Z,4.28
2022-09-10T05:14:26.458Z,3.45
2022-09-10T05:16:54.055Z,4.70
2022-09-10T05:19:21.406Z,3.05
2022-09-10T05:21:49.271Z,2.83
2022-09-10T05:24:16.592Z,4.30
2022-09-10T05:26:46.228Z,7.70
2022-09-10T05:29:13.952Z,5.95
2022-09-10T05:31:41.900Z,4.32
2022-09-10T05:34:09.190Z,2.97
2022-09-10T05:36:36.503Z,4.18
2022-09-10T05:39:04.544Z,5.53
2022-09-10T05:41:32.046Z,4.05
2022-09-10T05:44:00.743Z,3.88
2022-09-10T05:46:30.822Z,3.92
2022-09-10T05:48:58.275Z,4.35
2022-09-10T05:51:29.691Z,6.30
2022-09-10T05:53:57.359Z,3.75
2022-09-10T05:56:25.653Z,5.53
2022-09-10T05:58:52.974Z,5.65
2022-09-10T06:01:21.681Z,7.30
2022-09-10T06:03:50.874Z,4.00
2022-09-10T06:06:19.523Z,4.32
2022-09-10T06:08:50.995Z,3.05
2022-09-10T06:11:18.625Z,8.07
2022-09-10T06:13:45.931Z,7.30
2022-09-10T06:16:13.294Z,4.95
2022-09-10T06:18:42.344Z,4.15
2022-09-10T06:21:10.160Z,3.15
2022-09-10T06:23:37.575Z,5.00
2022-09-10T06:26:05.426Z,3.40
2022-09-10T06:28:33.038Z,3.10
2022-09-10T06:31:00.602Z,3.33
2022-09-10T06:33:27.998Z,3.58
2022-09-10T06:35:56.792Z,5.10
2022-09-10T06:38:24.143Z,2.33
2022-09-10T06:40:54.426Z,3.47
2022-09-10T06:43:23.492Z,5.20
2022-09-10T06:45:53.005Z,14.13
2022-09-10T06:48:39.417Z,8.23
2022-09-10T06:51:09.440Z,7.22
2022-09-10T06:53:36.906Z,4.20
2022-09-10T06:56:05.500Z,5.55
2022-09-10T06:58:33.957Z,10.65
2022-09-10T07:01:06.169Z,6.00
2022-09-10T07:03:33.496Z,5.32
2022-09-10T07:06:03.208Z,6.90
2022-09-10T07:08:32.145Z,6.03
2022-09-10T07:11:00.399Z,5.00
2022-09-10T07:13:27.965Z,12.20
2022-09-10T07:15:55.298Z,5.57
2022-09-10T07:18:22.682Z,8.88
2022-09-10T07:20:50.081Z,8.10
2022-09-10T07:23:18.046Z,7.18
2022-09-10T07:25:47.358Z,6.57
2022-09-10T07:28:15.206Z,4.85
2022-09-10T07:30:42.712Z,8.07
2022-09-10T07:33:11.023Z,7.50
2022-09-10T07:35:38.676Z,5.00
2022-09-10T07:38:06.823Z,4.47
2022-09-10T07:40:34.236Z,12.02
2022-09-10T07:43:02.936Z,11.60
2022-09-10T07:45:30.416Z,9.00
2022-09-10T07:47:57.794Z,9.15
2022-09-10T07:50:25.127Z,6.22
2022-09-10T07:52:52.705Z,6.00
2022-09-10T07:55:20.054Z,8.95
2022-09-10T07:57:48.536Z,6.50
2022-09-10T08:00:18.381Z,4.55
2022-09-10T08:02:46.815Z,10.00
2022-09-10T08:05:14.476Z,4.70
2022-09-10T08:07:42.233Z,5.88
2022-09-10T08:10:10.273Z,4.45
2022-09-10T08:12:37.603Z,4.43
2022-09-10T08:15:05.366Z,23.65
2022-09-10T08:17:34.185Z,7.95
2022-09-10T08:20:01.533Z,11.15
2022-09-10T08:22:29.041Z,9.00
2022-09-10T08:24:56.391Z,12.82
2022-09-10T08:27:23.701Z,6.78
2022-09-10T08:29:50.984Z,10.07
2022-09-10T08:32:18.351Z,5.60
2022-09-10T08:34:47.017Z,18.10
2022-09-10T08:37:14.494Z,17.05
2022-09-10T08:39:41.884Z,12.32
2022-09-10T08:42:10.447Z,9.45
2022-09-10T08:44:39.688Z,8.65
2022-09-10T08:47:08.517Z,16.65
2022-09-10T08:49:37.535Z,14.73
2022-09-10T08:52:08.110Z,12.43
2022-09-10T08:54:37.511Z,6.85
2022-09-10T08:57:04.966Z,9.68
2022-09-10T08:59:33.496Z,6.28
2022-09-10T09:02:01.340Z,6.57
2022-09-10T09:04:30.680Z,11.65
2022-09-10T09:06:59.348Z,15.10
2022-09-10T09:09:28.018Z,4.38
2022-09-10T09:11:56.157Z,6.07
2022-09-10T09:14:33.500Z,4.95
2022-09-10T09:17:07.129Z,15.07
2022-09-10T09:19:34.972Z,9.90
2022-09-10T09:22:04.481Z,6.82
2022-09-10T09:24:35.307Z,10.27
2022-09-10T09:27:03.113Z,10.02
2022-09-10T09:29:31.897Z,4.63
2022-09-10T09:31:59.364Z,13.77
2022-09-10T09:34:29.002Z,8.25
2022-09-10T09:36:57.329Z,4.15
2022-09-10T09:39:26.310Z,9.85
2022-09-10T09:41:58.943Z,2.55
2022-09-10T09:44:27.424Z,7.75
2022-09-10T09:46:54.779Z,7.07
2022-09-10T09:49:22.091Z,5.78
2022-09-10T09:51:51.673Z,6.82
2022-09-10T09:54:56.932Z,9.23
2022-09-10T09:57:15.108Z,8.95
2022-09-10T09:59:42.444Z,5.70
2022-09-10T10:02:11.453Z,12.77
2022-09-10T10:04:42.210Z,8.90
2022-09-10T10:07:10.119Z,8.32
2022-09-10T10:09:38.584Z,9.70
2022-09-10T10:12:06.092Z,7.35
2022-09-10T10:14:41.634Z,8.85
2022-09-10T10:17:29.607Z,7.57
2022-09-10T10:19:58.743Z,11.50
2022-09-10T10:22:27.006Z,13.35
2022-09-10T10:24:54.533Z,7.32
2022-09-10T10:27:30.088Z,7.90
2022-09-10T10:30:00.181Z,9.23
2022-09-10T10:32:30.120Z,7.72
2022-09-10T10:34:58.684Z,10.23
2022-09-10T10:37:28.587Z,7.78
2022-09-10T10:40:01.134Z,5.65
2022-09-10T10:42:29.842Z,10.65
2022-09-10T10:45:02.435Z,22.13
2022-09-10T10:47:33.979Z,12.60
2022-09-10T10:50:04.036Z,7.68
2022-09-10T10:52:33.778Z,13.07
2022-09-10T10:55:04.995Z,9.85
2022-09-10T10:57:45.817Z,7.72
2022-09-10T11:00:14.696Z,12.05
2022-09-10T11:02:44.491Z,6.88
2022-09-10T11:05:19.595Z,6.13
2022-09-10T11:07:47.241Z,9.68
2022-09-10T11:10:15.901Z,5.35
2022-09-10T11:12:44.539Z,8.63
2022-09-10T11:15:16.647Z,7.38
2022-09-10T11:17:47.134Z,12.68
2022-09-10T11:20:28.555Z,9.25
2022-09-10T11:22:58.693Z,12.05
2022-09-10T11:25:27.813Z,15.00
2022-09-10T11:27:55.786Z,9.88
2022-09-10T11:30:24.482Z,6.93
2022-09-10T11:32:53.805Z,8.23
2022-09-10T11:35:22.874Z,7.85
2022-09-10T11:37:52.151Z,6.05
2022-09-10T11:40:20.664Z,9.23
2022-09-10T11:42:50.990Z,6.50
2022-09-10T11:45:19.970Z,5.97
2022-09-10T11:47:48.803Z,3.95
2022-09-10T11:50:16.400Z,2.70
2022-09-10T11:52:43.801Z,3.15
2022-09-10T11:55:13.120Z,4.88
2022-09-10T11:57:41.220Z,3.58
2022-09-10T12:00:15.690Z,5.32
2022-09-10T12:03:02.595Z,2.80
2022-09-10T12:05:31.244Z,3.85
2022-09-10T12:08:00.342Z,3.83
2022-09-10T12:10:31.577Z,4.40
2022-09-10T12:12:59.074Z,4.50
2022-09-10T12:15:26.960Z,3.25
2022-09-10T12:17:54.982Z,4.18
2022-09-10T12:20:25.450Z,5.30
2022-09-10T12:22:53.202Z,2.63
2022-09-10T12:25:24.908Z,3.45
2022-09-10T12:27:52.740Z,3.78
2022-09-10T12:30:39.314Z,2.20
2022-09-10T12:33:14.702Z,2.45
2022-09-10T12:35:46.640Z,3.28
2022-09-10T12:38:32.660Z,2.53
2022-09-10T12:41:00.023Z,2.80
2022-09-10T12:43:45.774Z,2.90
2022-09-10T12:46:17.343Z,3.33
2022-09-10T12:48:45.541Z,1.83
2022-09-10T12:51:14.589Z,1.35
2022-09-10T12:53:48.716Z,2.42
2022-09-10T12:56:19.199Z,3.05
2022-09-10T12:58:50.077Z,1.70
2022-09-10T13:01:19.597Z,3.22
2022-09-10T13:03:49.926Z,1.42
2022-09-10T13:06:19.066Z,1.75
2022-09-10T13:08:47.754Z,1.42
2022-09-10T13:11:16.725Z,2.08
2022-09-10T13:13:44.959Z,1.73
2022-09-10T13:16:13.288Z,1.83
2022-09-10T13:18:42.044Z,1.23
2022-09-10T13:21:27.311Z,1.48
2022-09-10T13:23:56.091Z,1.95
2022-09-10T13:26:48.287Z,1.10
2022-09-10T13:29:30.558Z,1.65
2022-09-10T13:31:59.727Z,1.42
2022-09-10T13:34:48.511Z,1.45
2022-09-10T13:37:24.987Z,0.88
2022-09-10T13:40:01.632Z,2.10
2022-09-10T13:42:36.089Z,1.98
2022-09-10T13:45:13.001Z,0.90
2022-09-10T13:47:41.217Z,1.67
2022-09-10T13:50:13.233Z,1.15
2022-09-10T13:52:42.582Z,1.45
2022-09-10T13:55:14.110Z,1.02
2022-09-10T13:57:41.923Z,2.05
2022-09-10T14:00:15.252Z,2.53
2022-09-10T14:02:43.371Z,0.90
2022-09-10T14:05:24.051Z,1.73
2022-09-10T14:07:51.397Z,1.23
2022-09-10T14:10:20.141Z,1.10
2022-09-10T14:12:48.012Z,2.55
2022-09-10T14:15:16.970Z,1.20
2022-09-10T14:17:45.152Z,2.35
2022-09-10T14:20:16.913Z,2.40
2022-09-10T14:22:44.258Z,1.27
2022-09-10T14:25:26.433Z,1.98
2022-09-10T14:27:55.489Z,1.15
2022-09-10T14:30:24.723Z,1.30
2022-09-10T14:32:52.848Z,1.15
2022-09-10T14:35:35.904Z,1.40
2022-09-10T14:38:06.665Z,1.85
2022-09-10T14:40:37.560Z,1.38
2022-09-10T14:43:15.144Z,1.73
2022-09-10T14:45:42.678Z,1.52
2022-09-10T14:48:28.667Z,1.50
2022-09-10T14:51:05.464Z,1.33
2022-09-10T14:53:32.886Z,2.33
2022-09-10T14:56:01.587Z,1.25
2022-09-10T14:58:29.244Z,2.35
2022-09-10T15:00:58.384Z,1.48
2022-09-10T15:03:25.902Z,2.72
2022-09-10T15:05:53.239Z,1.83
2022-09-10T15:08:20.613Z,3.67
2022-09-10T15:10:49.283Z,1.30
2022-09-10T15:13:18.701Z,1.25
2022-09-10T15:15:46.850Z,1.15
2022-09-10T15:18:14.669Z,0.95
2022-09-10T15:20:42.320Z,1.60
2022-09-10T15:23:10.216Z,1.20
2022-09-10T15:25:38.808Z,1.77
2022-09-10T15:28:06.754Z,1.80
2022-09-10T15:30:36.813Z,1.13
2022-09-10T15:33:04.510Z,1.50
2022-09-10T15:35:31.981Z,2.80
2022-09-10T15:38:01.659Z,1.73
2022-09-10T15:40:29.015Z,1.85
2022-09-10T15:42:56.331Z,1.45
2022-09-10T15:45:23.992Z,2.05
2022-09-10T15:47:53.955Z,2.00
2022-09-10T15:50:21.318Z,2.17
2022-09-10T15:52:48.650Z,2.10
2022-09-10T15:55:16.109Z,2.67
2022-09-10T15:57:43.455Z,1.67
2022-09-10T16:00:11.821Z,2.00
2022-09-10T16:02:39.231Z,1.88
2022-09-10T16:05:08.508Z,1.40
2022-09-10T16:07:35.862Z,1.70
2022-09-10T16:10:03.273Z,1.67
2022-09-10T16:12:31.166Z,2.60
2022-09-10T16:15:00.689Z,2.78
2022-09-10T16:17:28.501Z,3.00
2022-09-10T16:19:56.338Z,3.35
2022-09-10T16:22:25.634Z,2.45
2022-09-10T16:24:53.043Z,3.15
2022-09-10T16:27:20.463Z,1.50
2022-09-10T16:29:48.572Z,2.42
2022-09-10T16:32:15.871Z,1.92
2022-09-10T16:34:43.280Z,2.88
2022-09-10T16:37:10.633Z,1.60
2022-09-10T16:39:39.366Z,1.60
2022-09-10T16:42:08.067Z,1.60
2022-09-10T16:44:35.554Z,1.85
2022-09-10T16:47:02.952Z,2.50
2022-09-10T16:49:30.279Z,2.25
2022-09-10T16:51:57.644Z,2.05
2022-09-10T16:54:26.471Z,2.13
2022-09-10T16:56:55.515Z,1.80
2022-09-10T16:59:23.152Z,2.08
2022-09-10T17:01:51.571Z,2.10
2022-09-10T17:04:23.391Z,1.55
2022-09-10T17:06:53.602Z,2.17
2022-09-10T17:09:20.930Z,2.28
2022-09-10T17:11:48.308Z,1.45
2022-09-10T17:14:17.028Z,1.33
2022-09-10T17:16:44.774Z,2.38
2022-09-10T17:19:12.504Z,1.65
2022-09-10T17:21:40.189Z,1.98
2022-09-10T17:24:08.249Z,2.28
2022-09-10T17:26:36.107Z,1.63
2022-09-10T17:29:04.110Z,1.77
2022-09-10T17:31:33.110Z,1.75
2022-09-10T17:34:00.862Z,2.78
2022-09-10T17:36:28.183Z,1.52
2022-09-10T17:38:56.159Z,3.33
2022-09-10T17:41:23.950Z,2.55
2022-09-10T17:43:51.308Z,2.20
2022-09-10T17:46:20.226Z,1.33
2022-09-10T17:48:48.977Z,2.20
2022-09-10T17:51:18.259Z,2.53
2022-09-10T17:53:45.595Z,2.03
2022-09-10T17:56:13.501Z,2.15
2022-09-10T17:58:40.905Z,2.03
2022-09-10T18:01:09.477Z,3.67
2022-09-10T18:03:36.879Z,2.22
2022-09-10T18:06:06.251Z,2.72
2022-09-10T18:08:33.794Z,1.70
2022-09-10T18:11:01.703Z,1.52
2022-09-10T18:13:29.691Z,3.08
2022-09-10T18:15:57.094Z,4.22
2022-09-10T18:18:24.472Z,2.05
2022-09-10T18:20:51.832Z,2.08
2022-09-10T18:23:20.552Z,2.28
2022-09-10T18:25:49.914Z,2.13
2022-09-10T18:28:17.469Z,2.38
2022-09-10T18:30:45.605Z,1.75
2022-09-10T18:33:13.797Z,1.95
2022-09-10T18:35:41.150Z,2.22
2022-09-10T18:38:08.484Z,1.92
2022-09-10T18:40:37.762Z,3.63
2022-09-10T18:43:05.777Z,2.72
2022-09-10T18:45:33.353Z,2.63
2022-09-10T18:48:01.193Z,2.83
2022-09-10T18:50:28.567Z,1.80
2022-09-10T18:52:56.904Z,2.42
2022-09-10T18:55:24.275Z,2.80
2022-09-10T18:57:53.024Z,3.22
2022-09-10T19:00:20.411Z,1.92
2022-09-10T19:02:48.117Z,2.00
2022-09-10T19:05:15.538Z,3.40
2022-09-10T19:07:42.927Z,2.80
2022-09-10T19:10:10.334Z,2.10
2022-09-10T19:12:37.654Z,2.85
2022-09-10T19:15:06.953Z,2.17
2022-09-10T19:17:34.308Z,3.08
2022-09-10T19:20:01.667Z,2.90
2022-09-10T19:22:28.994Z,3.33
2022-09-10T19:24:56.561Z,2.85
2022-09-10T19:27:23.896Z,2.63
2022-09-10T19:29:51.808Z,4.10
2022-09-10T19:32:20.977Z,2.53
2022-09-10T19:34:49.787Z,3.13
2022-09-10T19:37:17.123Z,2.08
2022-09-10T19:39:45.322Z,2.90
2022-09-10T19:42:12.773Z,2.78
2022-09-10T19:44:40.103Z,9.18
2022-09-10T19:47:07.431Z,2.88
2022-09-10T19:49:36.188Z,2.95
2022-09-10T19:52:04.184Z,2.20
2022-09-10T19:54:31.833Z,3.47
2022-09-10T19:56:59.168Z,3.05
2022-09-10T19:59:26.706Z,3.22
2022-09-10T20:01:54.159Z,2.92
2022-09-10T20:04:21.586Z,2.80
2022-09-10T20:06:50.310Z,2.53
2022-09-10T20:09:17.716Z,4.72
2022-09-10T20:11:45.247Z,3.33
2022-09-10T20:14:13.362Z,2.78
2022-09-10T20:16:41.614Z,4.00
2022-09-10T20:19:08.933Z,5.20
2022-09-10T20:21:36.983Z,2.85
2022-09-10T20:24:05.781Z,4.40
2022-09-10T20:26:33.571Z,4.40
2022-09-10T20:29:01.981Z,3.70
2022-09-10T20:31:31.179Z,2.78
2022-09-10T20:33:59.060Z,4.15
2022-09-10T20:36:26.682Z,3.72
2022-09-10T20:38:54.162Z,2.83
2022-09-10T20:41:23.241Z,4.60
2022-09-10T20:43:51.614Z,4.93
2022-09-10T20:46:19.161Z,2.50
2022-09-10T20:48:49.224Z,2.65
2022-09-10T20:51:17.692Z,2.45
2022-09-10T20:53:45.143Z,4.75
2022-09-10T20:56:12.928Z,3.40
2022-09-10T20:58:42.019Z,3.88
2022-09-10T21:01:09.947Z,3.03
2022-09-10T21:03:37.315Z,4.07
2022-09-10T21:06:04.884Z,3.40
2022-09-10T21:08:32.357Z,5.03
2022-09-10T21:11:03.409Z,3.08
2022-09-10T21:13:30.735Z,3.97
2022-09-10T21:16:08.135Z,3.83
2022-09-10T21:18:36.459Z,3.13
2022-09-10T21:21:07.715Z,3.33
2022-09-10T21:23:36.575Z,3.10
2022-09-10T21:26:05.027Z,4.50
2022-09-10T21:28:32.376Z,3.85
2022-09-10T21:31:03.883Z,3.40
2022-09-10T21:33:33.288Z,3.10
2022-09-10T21:36:01.325Z,3.55
2022-09-10T21:38:29.084Z,3.05
2022-09-10T21:40:57.194Z,3.25
2022-09-10T21:43:24.678Z,3.80
2022-09-10T21:45:52.067Z,3.92
2022-09-10T21:48:19.441Z,3.55
2022-09-10T21:50:48.164Z,4.90
2022-09-10T21:53:16.436Z,3.65
2022-09-10T21:55:43.817Z,3.70
2022-09-10T21:58:11.134Z,4.25
2022-09-10T22:00:38.491Z,4.22
2022-09-10T22:03:05.851Z,3.85
2022-09-10T22:05:33.213Z,5.53
2022-09-10T22:08:01.997Z,4.15
2022-09-10T22:10:32.429Z,5.28
2022-09-10T22:12:59.991Z,5.18
2022-09-10T22:15:27.409Z,5.07
2022-09-10T22:17:55.284Z,4.70
2022-09-10T22:20:22.660Z,3.45
2022-09-10T22:22:50.085Z,3.75
2022-09-10T22:25:18.743Z,4.25
2022-09-10T22:27:46.065Z,4.88
2022-09-10T22:30:13.509Z,3.40
2022-09-10T22:32:40.843Z,4.65
2022-09-10T22:35:08.458Z,3.15
2022-09-10T22:37:35.776Z,3.17
2022-09-10T22:40:03.415Z,3.30
2022-09-10T22:42:32.093Z,3.42
2022-09-10T22:45:01.077Z,3.85
2022-09-10T22:47:28.407Z,3.55
2022-09-10T22:49:56.131Z,4.25
2022-09-10T22:52:23.475Z,3.45
2022-09-10T22:54:50.804Z,3.75
2022-09-10T22:57:18.349Z,5.35
2022-09-10T22:59:47.352Z,3.60
2022-09-10T23:02:15.605Z,4.80
2022-09-10T23:04:43.188Z,3.45
2022-09-10T23:07:10.714Z,3.75
2022-09-10T23:09:38.071Z,3.72
2022-09-10T23:12:05.468Z,3.90
2022-09-10T23:14:33.397Z,5.38
2022-09-10T23:17:02.053Z,3.58
2022-09-10T23:19:30.529Z,4.97
2022-09-10T23:21:57.937Z,3.75
2022-09-10T23:24:26.279Z,4.95
2022-09-10T23:26:53.790Z,5.95
2022-09-10T23:29:21.487Z,4.82
2022-09-10T23:31:49.786Z,5.38
2022-09-10T23:34:18.793Z,4.20
2022-09-10T23:36:46.478Z,4.20
2022-09-10T23:39:14.208Z,5.82
2022-09-10T23:41:41.827Z,5.78
2022-09-10T23:44:09.368Z,7.82
2022-09-10T23:46:36.725Z,6.93
2022-09-10T23:49:04.340Z,6.22
2022-09-10T23:51:33.207Z,6.32
2022-09-10T23:54:00.559Z,4.30
2022-09-10T23:56:28.431Z,5.97
2022-09-10T23:58:56.254Z,4.25
